createdAt,value
2023-04-11T00:00:10.669Z,3.45
2023-04-11T00:01:15.445Z,4.05
2023-04-11T00:02:19.763Z,4.60
2023-04-11T00:03:22.440Z,4.50
2023-04-11T00:04:25.920Z,4.18
2023-04-11T00:05:31.155Z,3.88
2023-04-11T00:06:34.037Z,3.75
2023-04-11T00:07:36.093Z,4.38
2023-04-11T00:08:38.898Z,4.05
2023-04-11T00:09:40.894Z,3.80
2023-04-11T00:10:45.694Z,3.22
2023-04-11T00:11:48.099Z,4.90
2023-04-11T00:12:50.927Z,3.67
2023-04-11T00:13:58.761Z,3.85
2023-04-11T00:15:01.692Z,4.20
2023-04-11T00:16:03.869Z,3.45
2023-04-11T00:17:09.582Z,3.95
2023-04-11T00:18:12.754Z,3.63
2023-04-11T00:19:16.281Z,4.10
2023-04-11T00:20:18.206Z,3.80
2023-04-11T00:21:21.074Z,3.25
2023-04-11T00:22:24.362Z,5.68
2023-04-11T00:23:27.277Z,4.22
2023-04-11T00:24:29.099Z,4.50
2023-04-11T00:25:33.077Z,4.03
2023-04-11T00:26:34.903Z,3.97
2023-04-11T00:27:37.787Z,4.30
2023-04-11T00:28:39.631Z,3.67
2023-04-11T00:29:42.547Z,4.47
2023-04-11T00:30:44.431Z,4.57
2023-04-11T00:31:47.567Z,3.60
2023-04-11T00:32:51.207Z,3.13
2023-04-11T00:33:56.127Z,3.60
2023-04-11T00:34:58.035Z,3.83
2023-04-11T00:36:01.042Z,2.83
2023-04-11T00:37:03.205Z,3.22
2023-04-11T00:38:06.154Z,4.03
2023-04-11T00:39:08.886Z,3.90
2023-04-11T00:40:13.090Z,3.47
2023-04-11T00:41:14.945Z,4.20
2023-04-11T00:42:18.312Z,3.22
2023-04-11T00:43:20.458Z,3.53
2023-04-11T00:44:25.432Z,5.97
2023-04-11T00:45:27.664Z,3.20
2023-04-11T00:46:30.924Z,3.30
2023-04-11T00:47:33.802Z,3.50
2023-04-11T00:48:36.923Z,3.25
2023-04-11T00:49:41.401Z,2.70
2023-04-11T00:50:44.356Z,3.13
2023-04-11T00:51:46.306Z,3.10
2023-04-11T00:52:51.985Z,3.42
2023-04-11T00:53:54.873Z,4.00
2023-04-11T00:54:58.776Z,3.53
2023-04-11T00:56:00.868Z,3.13
2023-04-11T00:57:06.732Z,3.17
2023-04-11T00:58:08.620Z,3.63
2023-04-11T00:59:11.742Z,3.15
2023-04-11T01:00:14.676Z,3.35
2023-04-11T01:01:19.849Z,3.70
2023-04-11T01:02:21.933Z,3.55
2023-04-11T01:03:24.909Z,3.53
2023-04-11T01:04:27.157Z,3.05
2023-04-11T01:05:33.882Z,2.65
2023-04-11T01:06:36.644Z,2.83
2023-04-11T01:07:42.477Z,3.25
2023-04-11T01:08:46.516Z,3.03
2023-04-11T01:09:50.535Z,4.22
2023-04-11T01:10:52.806Z,3.00
2023-04-11T01:11:57.753Z,2.83
2023-04-11T01:13:01.204Z,3.50
2023-04-11T01:14:04.211Z,3.13
2023-04-11T01:15:07.321Z,4.10
2023-04-11T01:16:11.209Z,3.25
2023-04-11T01:17:14.303Z,3.10
2023-04-11T01:18:18.054Z,2.45
2023-04-11T01:19:21.512Z,2.90
2023-04-11T01:20:26.392Z,3.22
2023-04-11T01:21:29.891Z,3.00
2023-04-11T01:22:33.472Z,3.30
2023-04-11T01:23:37.787Z,4.10
2023-04-11T01:24:40.971Z,3.33
2023-04-11T01:25:43.136Z,3.30
2023-04-11T01:26:46.989Z,3.20
2023-04-11T01:27:50.614Z,2.90
2023-04-11T01:28:53.588Z,3.45
2023-04-11T01:29:56.742Z,2.83
2023-04-11T01:31:01.029Z,3.88
2023-04-11T01:32:02.915Z,2.65
2023-04-11T01:33:06.045Z,4.05
2023-04-11T01:34:08.241Z,2.92
2023-04-11T01:35:13.148Z,2.70
2023-04-11T01:36:15.100Z,3.05
2023-04-11T01:37:18.416Z,2.83
2023-04-11T01:38:20.585Z,2.97
2023-04-11T01:39:24.979Z,2.72
2023-04-11T01:40:29.607Z,3.17
2023-04-11T01:41:32.611Z,3.85
2023-04-11T01:42:35.665Z,3.17
2023-04-11T01:43:37.708Z,3.20
2023-04-11T01:44:40.770Z,3.10
2023-04-11T01:45:42.660Z,3.00
2023-04-11T01:46:47.227Z,2.42
2023-04-11T01:47:51.001Z,3.67
2023-04-11T01:48:56.826Z,3.53
2023-04-11T01:49:58.854Z,2.95
2023-04-11T01:51:01.732Z,3.75
2023-04-11T01:52:03.550Z,3.30
2023-04-11T01:53:06.409Z,2.92
2023-04-11T01:54:08.314Z,3.80
2023-04-11T01:55:12.593Z,3.63
2023-04-11T01:56:15.257Z,3.30
2023-04-11T01:57:18.063Z,3.17
2023-04-11T01:58:20.010Z,3.40
2023-04-11T01:59:22.830Z,3.17
2023-04-11T02:00:24.787Z,2.80
2023-04-11T02:01:28.431Z,2.38
2023-04-11T02:02:30.453Z,3.47
2023-04-11T02:03:33.616Z,2.83
2023-04-11T02:04:36.837Z,2.50
2023-04-11T02:05:40.348Z,2.75
2023-04-11T02:06:42.137Z,3.22
2023-04-11T02:07:45.120Z,2.85
2023-04-11T02:08:51.782Z,3.00
2023-04-11T02:09:54.621Z,3.00
2023-04-11T02:10:57.855Z,3.00
2023-04-11T02:12:01.533Z,3.10
2023-04-11T02:13:03.518Z,3.15
2023-04-11T02:14:06.496Z,3.35
2023-04-11T02:15:09.229Z,2.67
2023-04-11T02:16:15.154Z,3.33
2023-04-11T02:17:18.466Z,2.22
2023-04-11T02:18:21.365Z,2.55
2023-04-11T02:19:26.128Z,2.92
2023-04-11T02:20:29.189Z,2.85
2023-04-11T02:21:33.889Z,2.85
2023-04-11T02:22:36.817Z,2.60
2023-04-11T02:23:38.794Z,2.10
2023-04-11T02:24:42.674Z,2.80
2023-04-11T02:25:44.569Z,3.20
2023-04-11T02:26:49.298Z,5.55
2023-04-11T02:27:52.592Z,2.10
2023-04-11T02:28:55.901Z,3.72
2023-04-11T02:29:58.196Z,2.83
2023-04-11T02:31:01.077Z,2.47
2023-04-11T02:32:03.195Z,2.75
2023-04-11T02:33:06.159Z,2.83
2023-04-11T02:34:08.344Z,2.58
2023-04-11T02:35:11.195Z,3.08
2023-04-11T02:36:17.219Z,2.55
2023-04-11T02:37:19.126Z,2.78
2023-04-11T02:38:22.234Z,2.55
2023-04-11T02:39:24.273Z,2.78
2023-04-11T02:40:27.166Z,1.92
2023-04-11T02:41:29.136Z,2.00
2023-04-11T02:42:33.306Z,3.20
2023-04-11T02:43:35.479Z,2.10
2023-04-11T02:44:38.638Z,3.38
2023-04-11T02:45:41.303Z,2.60
2023-04-11T02:46:44.692Z,2.65
2023-04-11T02:47:46.652Z,2.60
2023-04-11T02:48:50.014Z,3.33
2023-04-11T02:49:53.099Z,2.38
2023-04-11T02:51:00.120Z,2.15
2023-04-11T02:52:03.351Z,2.50
2023-04-11T02:53:05.616Z,2.42
2023-04-11T02:54:09.274Z,2.42
2023-04-11T02:55:13.084Z,2.35
2023-04-11T02:56:18.998Z,2.38
2023-04-11T02:57:24.157Z,2.28
2023-04-11T02:58:29.001Z,9.57
2023-04-11T02:59:34.194Z,2.63
2023-04-11T03:00:39.154Z,2.35
2023-04-11T03:01:44.702Z,1.88
2023-04-11T03:02:49.102Z,3.10
2023-04-11T03:03:55.429Z,3.40
2023-04-11T03:05:03.997Z,2.17
2023-04-11T03:06:08.956Z,2.38
2023-04-11T03:07:13.530Z,2.05
2023-04-11T03:08:15.487Z,1.85
2023-04-11T03:09:25.278Z,2.35
2023-04-11T03:10:28.231Z,2.85
2023-04-11T03:11:31.160Z,1.65
2023-04-11T03:12:34.118Z,1.67
2023-04-11T03:13:40.749Z,1.55
2023-04-11T03:14:43.633Z,1.63
2023-04-11T03:15:45.500Z,2.97
2023-04-11T03:16:49.252Z,1.90
2023-04-11T03:17:51.761Z,1.30
2023-04-11T03:18:54.831Z,2.30
2023-04-11T03:19:56.817Z,2.15
2023-04-11T03:21:00.510Z,2.65
2023-04-11T03:22:05.269Z,2.25
2023-04-11T03:23:08.157Z,1.65
2023-04-11T03:24:10.067Z,3.85
2023-04-11T03:25:13.026Z,3.38
2023-04-11T03:26:15.951Z,1.92
2023-04-11T03:27:20.349Z,1.67
2023-04-11T03:28:27.106Z,2.25
2023-04-11T03:29:31.927Z,1.80
2023-04-11T03:30:43.720Z,2.05
2023-04-11T03:31:49.724Z,1.75
2023-04-11T03:32:53.000Z,1.85
2023-04-11T03:33:56.146Z,2.22
2023-04-11T03:35:00.877Z,2.25
2023-04-11T03:36:04.776Z,2.40
2023-04-11T03:37:07.616Z,1.77
2023-04-11T03:38:11.863Z,2.08
2023-04-11T03:39:14.803Z,1.45
2023-04-11T03:40:18.497Z,1.50
2023-04-11T03:41:26.048Z,2.65
2023-04-11T03:42:27.973Z,6.50
2023-04-11T03:43:35.022Z,2.40
2023-04-11T03:44:38.903Z,2.05
2023-04-11T03:45:41.872Z,2.05
2023-04-11T03:46:50.967Z,2.40
2023-04-11T03:47:54.552Z,2.05
2023-04-11T03:49:00.200Z,1.60
2023-04-11T03:50:03.920Z,1.55
2023-04-11T03:51:12.792Z,1.60
2023-04-11T03:52:22.494Z,2.40
2023-04-11T03:53:25.677Z,1.73
2023-04-11T03:54:32.606Z,2.10
2023-04-11T03:55:34.704Z,1.65
2023-04-11T03:56:39.625Z,1.95
2023-04-11T03:57:44.778Z,2.72
2023-04-11T03:58:47.838Z,2.38
2023-04-11T03:59:51.530Z,2.35
2023-04-11T04:00:54.397Z,1.63
2023-04-11T04:01:56.713Z,2.35
2023-04-11T04:03:00.050Z,1.35
2023-04-11T04:04:03.442Z,4.53
2023-04-11T04:05:09.427Z,2.13
2023-04-11T04:06:13.508Z,1.63
2023-04-11T04:07:18.089Z,2.50
2023-04-11T04:08:21.175Z,2.17
2023-04-11T04:09:24.532Z,3.65
2023-04-11T04:10:31.054Z,1.50
2023-04-11T04:11:34.899Z,2.55
2023-04-11T04:12:37.765Z,1.90
2023-04-11T04:14:02.222Z,3.05
2023-04-11T04:15:07.264Z,1.60
2023-04-11T04:16:11.380Z,1.85
2023-04-11T04:17:16.580Z,1.63
2023-04-11T04:18:19.857Z,1.50
2023-04-11T04:19:22.992Z,1.50
2023-04-11T04:20:25.937Z,1.60
2023-04-11T04:21:33.005Z,1.75
2023-04-11T04:22:35.964Z,1.60
2023-04-11T04:23:39.409Z,2.10
2023-04-11T04:25:01.164Z,1.67
2023-04-11T04:26:06.196Z,2.05
2023-04-11T04:27:11.628Z,1.25
2023-04-11T04:28:20.442Z,1.75
2023-04-11T04:29:23.724Z,2.38
2023-04-11T04:30:29.638Z,2.20
2023-04-11T04:31:42.028Z,1.75
2023-04-11T04:32:44.983Z,1.52
2023-04-11T04:33:49.554Z,1.95
2023-04-11T04:34:59.103Z,2.47
2023-04-11T04:36:05.770Z,2.08
2023-04-11T04:37:08.380Z,1.88
2023-04-11T04:38:17.470Z,2.17
2023-04-11T04:39:25.443Z,1.58
2023-04-11T04:40:31.771Z,1.45
2023-04-11T04:41:39.155Z,1.50
2023-04-11T04:42:43.138Z,1.92
2023-04-11T04:43:46.088Z,1.52
2023-04-11T04:44:55.130Z,1.65
2023-04-11T04:45:58.439Z,2.00
2023-04-11T04:47:08.787Z,5.03
2023-04-11T04:48:10.916Z,2.72
2023-04-11T04:49:13.859Z,1.63
2023-04-11T04:50:16.275Z,1.58
2023-04-11T04:51:19.475Z,1.60
2023-04-11T04:52:22.463Z,2.45
2023-04-11T04:53:24.301Z,1.67
2023-04-11T04:54:32.903Z,3.53
2023-04-11T04:55:36.250Z,2.33
2023-04-11T04:56:39.651Z,2.55
2023-04-11T04:57:42.849Z,1.83
2023-04-11T04:58:47.311Z,3.15
2023-04-11T04:59:51.045Z,2.55
2023-04-11T05:00:56.032Z,1.50
2023-04-11T05:02:03.424Z,2.58
2023-04-11T05:03:08.643Z,1.55
2023-04-11T05:04:12.088Z,3.75
2023-04-11T05:05:29.177Z,2.30
2023-04-11T05:06:31.887Z,2.25
2023-04-11T05:07:36.598Z,2.28
2023-04-11T05:08:38.472Z,2.00
2023-04-11T05:09:43.532Z,2.25
2023-04-11T05:10:51.211Z,1.52
2023-04-11T05:11:54.128Z,2.05
2023-04-11T05:12:58.049Z,1.60
2023-04-11T05:14:00.946Z,1.77
2023-04-11T05:15:03.264Z,1.90
2023-04-11T05:16:09.345Z,1.92
2023-04-11T05:17:13.640Z,2.05
2023-04-11T05:18:15.782Z,2.10
2023-04-11T05:19:19.270Z,2.00
2023-04-11T05:20:26.535Z,1.95
2023-04-11T05:21:29.765Z,2.17
2023-04-11T05:22:32.738Z,2.40
2023-04-11T05:23:35.807Z,3.55
2023-04-11T05:24:39.326Z,2.22
2023-04-11T05:25:44.270Z,2.15
2023-04-11T05:26:49.484Z,2.33
2023-04-11T05:27:53.838Z,3.00
2023-04-11T05:29:00.867Z,2.10
2023-04-11T05:30:03.857Z,5.15
2023-04-11T05:31:12.169Z,2.47
2023-04-11T05:32:16.425Z,2.78
2023-04-11T05:33:19.311Z,2.45
2023-04-11T05:34:21.787Z,1.70
2023-04-11T05:35:26.048Z,2.28
2023-04-11T05:36:30.230Z,1.88
2023-04-11T05:37:33.102Z,2.13
2023-04-11T05:38:35.147Z,2.47
2023-04-11T05:39:37.954Z,2.92
2023-04-11T05:40:39.778Z,4.00
2023-04-11T05:41:43.335Z,2.30
2023-04-11T05:42:45.810Z,4.15
2023-04-11T05:43:48.718Z,1.98
2023-04-11T05:44:50.813Z,3.80
2023-04-11T05:45:53.759Z,1.77
2023-04-11T05:46:57.592Z,2.05
2023-04-11T05:48:00.943Z,2.03
2023-04-11T05:49:04.359Z,1.95
2023-04-11T05:50:07.368Z,1.70
2023-04-11T05:51:10.251Z,2.28
2023-04-11T05:52:12.078Z,1.45
2023-04-11T05:53:14.948Z,2.25
2023-04-11T05:54:31.052Z,1.60
2023-04-11T05:55:33.908Z,2.90
2023-04-11T05:56:37.367Z,2.20
2023-04-11T05:57:40.208Z,2.00
2023-04-11T05:58:43.194Z,2.47
2023-04-11T05:59:49.610Z,1.70
2023-04-11T06:00:51.696Z,1.95
2023-04-11T06:01:54.565Z,1.98
2023-04-11T06:02:56.882Z,2.10
2023-04-11T06:04:01.522Z,2.28
2023-04-11T06:05:03.847Z,2.40
2023-04-11T06:06:07.525Z,1.67
2023-04-11T06:07:09.586Z,1.83
2023-04-11T06:08:12.649Z,3.10
2023-04-11T06:09:14.551Z,1.60
2023-04-11T06:10:17.568Z,2.47
2023-04-11T06:11:19.466Z,1.85
2023-04-11T06:12:22.364Z,1.50
2023-04-11T06:13:24.813Z,2.20
2023-04-11T06:14:27.717Z,1.60
2023-04-11T06:15:30.130Z,2.00
2023-04-11T06:16:33.546Z,2.67
2023-04-11T06:17:35.586Z,2.00
2023-04-11T06:18:38.422Z,1.70
2023-04-11T06:19:41.721Z,1.90
2023-04-11T06:20:46.181Z,1.95
2023-04-11T06:21:49.036Z,1.92
2023-04-11T06:22:52.060Z,1.63
2023-04-11T06:23:54.129Z,2.00
2023-04-11T06:24:57.205Z,1.60
2023-04-11T06:26:00.035Z,2.28
2023-04-11T06:27:01.919Z,1.70
2023-04-11T06:28:05.075Z,3.80
2023-04-11T06:29:07.377Z,1.73
2023-04-11T06:30:10.654Z,2.75
2023-04-11T06:31:13.522Z,1.95
2023-04-11T06:32:15.601Z,2.55
2023-04-11T06:33:18.449Z,1.50
2023-04-11T06:34:20.597Z,2.10
2023-04-11T06:35:25.613Z,1.75
2023-04-11T06:36:27.691Z,1.70
2023-04-11T06:37:30.564Z,3.75
2023-04-11T06:38:34.910Z,3.45
2023-04-11T06:39:37.844Z,1.83
2023-04-11T06:40:40.841Z,1.67
2023-04-11T06:41:42.726Z,2.10
2023-04-11T06:42:45.580Z,3.83
2023-04-11T06:43:48.498Z,1.48
2023-04-11T06:44:50.437Z,2.08
2023-04-11T06:45:53.269Z,1.70
2023-04-11T06:46:55.444Z,2.80
2023-04-11T06:47:58.400Z,3.25
2023-04-11T06:49:01.333Z,2.05
2023-04-11T06:50:04.322Z,1.63
2023-04-11T06:51:09.097Z,2.00
2023-04-11T06:52:11.962Z,2.88
2023-04-11T06:53:15.008Z,4.18
2023-04-11T06:54:17.489Z,1.90
2023-04-11T06:55:21.045Z,1.70
2023-04-11T06:56:22.846Z,1.55
2023-04-11T06:57:25.915Z,1.63
2023-04-11T06:58:28.703Z,2.30
2023-04-11T06:59:30.578Z,1.73
2023-04-11T07:00:33.492Z,1.40
2023-04-11T07:01:37.827Z,1.73
2023-04-11T07:02:41.121Z,1.10
2023-04-11T07:03:43.612Z,1.35
2023-04-11T07:04:46.796Z,1.63
2023-04-11T07:05:50.642Z,2.65
2023-04-11T07:06:54.865Z,0.98
2023-04-11T07:07:56.732Z,1.52
2023-04-11T07:09:01.115Z,1.00
2023-04-11T07:10:04.323Z,3.30
2023-04-11T07:11:06.952Z,2.17
2023-04-11T07:12:09.935Z,0.85
2023-04-11T07:13:12.874Z,1.25
2023-04-11T07:14:14.709Z,1.52
2023-04-11T07:15:17.546Z,1.40
2023-04-11T07:16:19.458Z,1.00
2023-04-11T07:17:22.310Z,1.45
2023-04-11T07:18:25.953Z,0.88
2023-04-11T07:19:28.784Z,8.80
2023-04-11T07:20:32.833Z,26.52
2023-04-11T07:21:34.815Z,13.25
2023-04-11T07:22:42.471Z,4.63
2023-04-11T07:23:45.518Z,2.45
2023-04-11T07:24:52.595Z,1.40
2023-04-11T07:25:54.708Z,1.33
2023-04-11T07:26:58.841Z,1.35
2023-04-11T07:28:00.811Z,1.17
2023-04-11T07:29:04.047Z,1.30
2023-04-11T07:30:07.151Z,1.23
2023-04-11T07:31:10.244Z,1.15
2023-04-11T07:32:13.162Z,1.20
2023-04-11T07:33:14.982Z,0.82
2023-04-11T07:34:17.935Z,1.05
2023-04-11T07:35:20.250Z,1.35
2023-04-11T07:36:23.204Z,1.80
2023-04-11T07:37:26.892Z,0.70
2023-04-11T07:38:30.967Z,2.70
2023-04-11T07:39:34.201Z,1.10
2023-04-11T07:40:36.151Z,0.90
2023-04-11T07:41:39.083Z,0.70
2023-04-11T07:42:41.081Z,1.05
2023-04-11T07:43:44.004Z,2.47
2023-04-11T07:44:47.248Z,1.33
2023-04-11T07:45:49.233Z,1.10
2023-04-11T07:46:52.244Z,0.90
2023-04-11T07:47:54.165Z,1.80
2023-04-11T07:48:57.057Z,1.15
2023-04-11T07:49:59.001Z,0.90
2023-04-11T07:51:01.918Z,2.25
2023-04-11T07:52:04.892Z,1.00
2023-04-11T07:53:07.879Z,0.90
2023-04-11T07:54:12.302Z,0.85
2023-04-11T07:55:14.223Z,0.88
2023-04-11T07:56:17.109Z,1.05
2023-04-11T07:57:19.931Z,0.75
2023-04-11T07:58:22.302Z,1.80
2023-04-11T07:59:25.222Z,0.60
2023-04-11T08:00:28.746Z,1.05
2023-04-11T08:01:31.702Z,1.02
2023-04-11T08:02:33.747Z,2.58
2023-04-11T08:03:37.097Z,0.80
2023-04-11T08:04:40.456Z,1.38
2023-04-11T08:05:43.472Z,1.75
2023-04-11T08:06:46.725Z,1.80
2023-04-11T08:07:48.577Z,1.15
2023-04-11T08:08:52.160Z,0.82
2023-04-11T08:09:55.431Z,1.65
2023-04-11T08:10:58.321Z,1.80
2023-04-11T08:12:01.774Z,0.70
2023-04-11T08:13:04.711Z,0.80
2023-04-11T08:14:08.473Z,0.70
2023-04-11T08:15:11.244Z,0.93
2023-04-11T08:16:15.751Z,0.80
2023-04-11T08:17:27.812Z,19.90
2023-04-11T08:18:31.287Z,3.75
2023-04-11T08:19:33.129Z,7.00
2023-04-11T08:20:36.174Z,2.65
2023-04-11T08:21:39.075Z,0.98
2023-04-11T08:22:44.706Z,1.02
2023-04-11T08:23:47.899Z,2.05
2023-04-11T08:24:49.838Z,0.77
2023-04-11T08:25:54.137Z,0.80
2023-04-11T08:26:57.049Z,0.90
2023-04-11T08:27:58.937Z,0.70
2023-04-11T08:29:02.058Z,3.25
2023-04-11T08:30:04.844Z,1.55
2023-04-11T08:31:10.192Z,0.80
2023-04-11T08:32:12.192Z,1.35
2023-04-11T08:33:15.779Z,0.80
2023-04-11T08:34:17.737Z,1.55
2023-04-11T08:35:20.698Z,0.70
2023-04-11T08:36:22.616Z,0.82
2023-04-11T08:37:25.567Z,1.00
2023-04-11T08:38:28.600Z,0.80
2023-04-11T08:39:31.499Z,0.68
2023-04-11T08:40:34.468Z,0.70
2023-04-11T08:41:39.706Z,1.52
2023-04-11T08:42:42.101Z,1.20
2023-04-11T08:43:46.963Z,1.63
2023-04-11T08:44:53.221Z,2.33
2023-04-11T08:45:56.161Z,0.80
2023-04-11T08:46:58.100Z,0.70
2023-04-11T08:48:01.045Z,1.20
2023-04-11T08:49:02.994Z,1.15
2023-04-11T08:50:07.025Z,2.00
2023-04-11T08:51:08.937Z,2.75
2023-04-11T08:52:12.069Z,0.82
2023-04-11T08:53:16.153Z,0.80
2023-04-11T08:54:18.166Z,1.17
2023-04-11T08:55:21.304Z,0.70
2023-04-11T08:56:23.313Z,0.88
2023-04-11T08:57:31.382Z,0.80
2023-04-11T08:58:33.616Z,0.80
2023-04-11T08:59:36.565Z,1.80
2023-04-11T09:00:39.532Z,1.52
2023-04-11T09:01:42.707Z,0.70
2023-04-11T09:02:59.095Z,1.40
2023-04-11T09:04:05.260Z,1.20
2023-04-11T09:05:08.547Z,1.90
2023-04-11T09:06:12.382Z,1.35
2023-04-11T09:07:16.976Z,2.05
2023-04-11T09:08:20.217Z,1.52
2023-04-11T09:09:29.335Z,0.80
2023-04-11T09:10:32.241Z,1.67
2023-04-11T09:11:53.379Z,0.80
2023-04-11T09:12:58.127Z,0.70
2023-04-11T09:14:07.606Z,1.27
2023-04-11T09:15:19.570Z,1.30
2023-04-11T09:16:22.611Z,0.80
2023-04-11T09:17:24.720Z,0.80
2023-04-11T09:18:34.548Z,1.10
2023-04-11T09:19:37.542Z,1.20
2023-04-11T09:20:39.417Z,1.17
2023-04-11T09:21:50.996Z,1.52
2023-04-11T09:22:55.033Z,0.80
2023-04-11T09:24:15.340Z,3.17
2023-04-11T09:25:20.826Z,1.73
2023-04-11T09:26:27.555Z,1.08
2023-04-11T09:27:30.453Z,0.80
2023-04-11T09:28:42.769Z,0.80
2023-04-11T09:29:47.708Z,1.15
2023-04-11T09:30:51.264Z,1.15
2023-04-11T09:31:54.346Z,0.93
2023-04-11T09:32:57.257Z,1.15
2023-04-11T09:34:00.228Z,0.90
2023-04-11T09:35:15.635Z,1.23
2023-04-11T09:36:20.905Z,0.80
2023-04-11T09:37:22.821Z,1.63
2023-04-11T09:38:30.805Z,1.50
2023-04-11T09:39:33.919Z,1.90
2023-04-11T09:40:43.845Z,2.40
2023-04-11T09:41:46.938Z,0.85
2023-04-11T09:42:50.891Z,0.70
2023-04-11T09:43:56.442Z,1.55
2023-04-11T09:45:00.437Z,4.13
2023-04-11T09:46:10.636Z,11.35
2023-04-11T09:47:13.649Z,19.85
2023-04-11T09:48:17.752Z,26.20
2023-04-11T09:49:19.643Z,3.65
2023-04-11T09:50:22.863Z,2.35
2023-04-11T09:51:35.932Z,3.65
2023-04-11T09:52:42.910Z,1.00
2023-04-11T09:53:45.289Z,1.48
2023-04-11T09:54:50.762Z,1.85
2023-04-11T09:55:52.992Z,0.90
2023-04-11T09:56:56.309Z,1.02
2023-04-11T09:58:00.472Z,0.82
2023-04-11T09:59:04.180Z,4.00
2023-04-11T10:00:15.445Z,1.63
2023-04-11T10:01:19.921Z,1.30
2023-04-11T10:02:23.051Z,1.17
2023-04-11T10:03:26.551Z,0.90
2023-04-11T10:04:29.916Z,1.95
2023-04-11T10:05:32.034Z,2.53
2023-04-11T10:06:42.585Z,1.40
2023-04-11T10:07:47.348Z,4.85
2023-04-11T10:08:52.471Z,2.83
2023-04-11T10:09:54.519Z,1.02
2023-04-11T10:10:57.884Z,1.95
2023-04-11T10:12:00.753Z,2.47
2023-04-11T10:13:04.226Z,2.08
2023-04-11T10:14:07.551Z,4.65
2023-04-11T10:15:11.406Z,2.60
2023-04-11T10:16:15.849Z,2.30
2023-04-11T10:17:22.976Z,3.17
2023-04-11T10:18:27.305Z,2.13
2023-04-11T10:19:29.095Z,1.95
2023-04-11T10:20:50.226Z,2.28
2023-04-11T10:21:52.370Z,1.23
2023-04-11T10:23:02.124Z,2.85
2023-04-11T10:24:08.715Z,1.35
2023-04-11T10:25:18.157Z,1.13
2023-04-11T10:26:21.060Z,2.05
2023-04-11T10:27:47.310Z,2.90
2023-04-11T10:28:50.189Z,3.00
2023-04-11T10:29:53.483Z,2.03
2023-04-11T10:31:01.678Z,0.90
2023-04-11T10:32:11.146Z,2.47
2023-04-11T10:33:16.022Z,1.70
2023-04-11T10:34:17.941Z,1.25
2023-04-11T10:35:23.727Z,1.20
2023-04-11T10:36:27.178Z,1.35
2023-04-11T10:37:32.889Z,1.08
2023-04-11T10:38:49.230Z,1.50
2023-04-11T10:40:11.048Z,1.88
2023-04-11T10:41:18.747Z,4.03
2023-04-11T10:42:28.271Z,1.20
2023-04-11T10:43:31.238Z,3.63
2023-04-11T10:44:33.204Z,2.08
2023-04-11T10:45:40.196Z,1.00
2023-04-11T10:46:45.584Z,1.10
2023-04-11T10:48:07.380Z,2.20
2023-04-11T10:49:10.388Z,1.25
2023-04-11T10:50:36.886Z,1.40
2023-04-11T10:51:39.820Z,0.80
2023-04-11T10:52:41.848Z,1.75
2023-04-11T10:53:47.258Z,1.35
2023-04-11T10:54:51.685Z,2.00
2023-04-11T10:55:53.844Z,1.45
2023-04-11T10:56:57.271Z,2.03
2023-04-11T10:58:08.156Z,1.23
2023-04-11T11:00:12.173Z,0.93
2023-04-11T11:01:31.728Z,3.17
2023-04-11T11:02:41.167Z,2.55
2023-04-11T11:03:54.055Z,14.23
2023-04-11T11:04:56.363Z,27.42
2023-04-11T11:06:00.464Z,44.88
2023-04-11T11:07:06.583Z,14.63
2023-04-11T11:08:09.877Z,3.25
2023-04-11T11:09:21.943Z,2.78
2023-04-11T11:10:43.492Z,2.35
2023-04-11T11:11:46.413Z,3.42
2023-04-11T11:12:54.981Z,3.40
2023-04-11T11:13:58.603Z,4.80
2023-04-11T11:15:12.794Z,1.33
2023-04-11T11:16:17.011Z,1.70
2023-04-11T11:17:20.382Z,1.20
2023-04-11T11:18:23.237Z,2.53
2023-04-11T11:19:26.338Z,1.80
2023-04-11T11:20:28.245Z,0.90
2023-04-11T11:21:34.702Z,1.02
2023-04-11T11:22:36.576Z,1.35
2023-04-11T11:23:39.429Z,4.25
2023-04-11T11:24:41.301Z,1.05
2023-04-11T11:25:53.642Z,2.38
2023-04-11T11:26:57.164Z,1.50
2023-04-11T11:28:00.327Z,1.33
2023-04-11T11:29:03.570Z,1.45
2023-04-11T11:30:10.981Z,3.60
2023-04-11T11:31:13.844Z,1.50
2023-04-11T11:32:25.297Z,0.95
2023-04-11T11:33:28.267Z,2.13
2023-04-11T11:34:31.450Z,3.20
2023-04-11T11:35:34.410Z,2.55
2023-04-11T11:36:40.630Z,2.20
2023-04-11T11:37:42.723Z,1.20
2023-04-11T11:38:45.897Z,2.78
2023-04-11T11:39:48.373Z,1.25
2023-04-11T11:40:52.330Z,2.10
2023-04-11T11:41:56.136Z,0.90
2023-04-11T11:42:59.076Z,1.73
2023-04-11T11:44:02.103Z,1.38
2023-04-11T11:45:14.495Z,1.75
2023-04-11T11:46:17.848Z,2.17
2023-04-11T11:47:19.759Z,2.60
2023-04-11T11:48:25.186Z,3.53
2023-04-11T11:49:27.227Z,2.65
2023-04-11T11:50:31.491Z,13.48
2023-04-11T11:51:41.604Z,21.30
2023-04-11T11:52:44.594Z,11.50
2023-04-11T11:54:03.277Z,9.30
2023-04-11T11:55:11.215Z,9.20
2023-04-11T11:56:16.301Z,6.22
2023-04-11T11:57:22.764Z,1.75
2023-04-11T11:58:26.239Z,1.90
2023-04-11T11:59:28.268Z,1.40
2023-04-11T12:00:37.666Z,2.05
2023-04-11T12:01:43.978Z,3.65
2023-04-11T12:02:46.194Z,1.58
2023-04-11T12:03:51.569Z,1.55
2023-04-11T12:04:58.084Z,7.15
2023-04-11T12:06:01.258Z,3.83
2023-04-11T12:07:08.763Z,3.97
2023-04-11T12:08:12.020Z,2.03
2023-04-11T12:09:15.150Z,3.65
2023-04-11T12:10:17.310Z,5.00
2023-04-11T12:11:20.619Z,39.20
2023-04-11T12:12:22.500Z,36.45
2023-04-11T12:13:27.703Z,16.77
2023-04-11T12:14:30.662Z,15.20
2023-04-11T12:15:35.578Z,4.00
2023-04-11T12:16:38.833Z,3.83
2023-04-11T12:17:41.159Z,4.28
2023-04-11T12:18:45.203Z,4.70
2023-04-11T12:19:56.242Z,2.15
2023-04-11T12:20:59.876Z,3.88
2023-04-11T12:22:02.884Z,2.60
2023-04-11T12:23:05.775Z,5.13
2023-04-11T12:24:09.909Z,3.80
2023-04-11T12:25:13.508Z,2.80
2023-04-11T12:26:17.676Z,1.83
2023-04-11T12:27:19.599Z,2.75
2023-04-11T12:28:22.460Z,3.65
2023-04-11T12:29:26.440Z,2.00
2023-04-11T12:30:30.093Z,3.63
2023-04-11T12:31:33.192Z,3.15
2023-04-11T12:32:35.676Z,1.83
2023-04-11T12:33:38.684Z,2.60
2023-04-11T12:34:40.608Z,3.33
2023-04-11T12:35:44.852Z,5.70
2023-04-11T12:36:46.755Z,2.33
2023-04-11T12:37:49.711Z,2.20
2023-04-11T12:38:52.565Z,4.00
2023-04-11T12:39:54.875Z,4.10
2023-04-11T12:41:19.747Z,3.38
2023-04-11T12:42:23.832Z,4.78
2023-04-11T12:43:29.451Z,3.15
2023-04-11T12:44:32.340Z,1.67
2023-04-11T12:45:34.263Z,5.57
2023-04-11T12:46:37.464Z,2.45
2023-04-11T12:47:40.790Z,4.20
2023-04-11T12:48:43.608Z,2.40
2023-04-11T12:49:46.470Z,1.60
2023-04-11T12:50:50.792Z,2.03
2023-04-11T12:51:52.672Z,2.28
2023-04-11T12:52:56.320Z,2.95
2023-04-11T12:53:58.524Z,1.58
2023-04-11T12:55:01.578Z,1.40
2023-04-11T12:56:04.666Z,3.17
2023-04-11T12:57:07.648Z,3.53
2023-04-11T12:58:10.650Z,1.98
2023-04-11T12:59:12.476Z,1.88
2023-04-11T13:00:16.836Z,2.88
2023-04-11T13:01:18.746Z,1.00
2023-04-11T13:02:22.110Z,1.60
2023-04-11T13:03:25.216Z,2.78
2023-04-11T13:04:27.492Z,3.17
2023-04-11T13:05:30.485Z,3.90
2023-04-11T13:06:34.309Z,3.33
2023-04-11T13:07:37.252Z,4.70
2023-04-11T13:08:40.111Z,13.02
2023-04-11T13:09:42.188Z,8.77
2023-04-11T13:10:45.081Z,4.10
2023-04-11T13:11:47.037Z,3.08
2023-04-11T13:12:53.175Z,2.22
2023-04-11T13:13:55.117Z,3.97
2023-04-11T13:14:58.128Z,3.75
2023-04-11T13:16:01.156Z,3.65
2023-04-11T13:17:03.292Z,2.65
2023-04-11T13:18:06.317Z,3.10
2023-04-11T13:19:08.171Z,1.35
2023-04-11T13:20:12.631Z,1.90
2023-04-11T13:21:14.875Z,1.08
2023-04-11T13:22:19.177Z,5.57
2023-04-11T13:23:22.113Z,1.70
2023-04-11T13:24:26.260Z,1.67
2023-04-11T13:25:29.434Z,1.77
2023-04-11T13:26:31.292Z,1.00
2023-04-11T13:27:34.212Z,2.78
2023-04-11T13:28:39.032Z,2.03
2023-04-11T13:29:41.180Z,2.03
2023-04-11T13:30:44.094Z,1.90
2023-04-11T13:31:46.011Z,4.03
2023-04-11T13:32:48.903Z,4.13
2023-04-11T13:33:51.528Z,3.10
2023-04-11T13:34:54.390Z,2.45
2023-04-11T13:35:56.584Z,3.03
2023-04-11T13:36:59.828Z,2.50
2023-04-11T13:38:04.791Z,2.55
2023-04-11T13:39:07.926Z,1.92
2023-04-11T13:40:12.331Z,1.55
2023-04-11T13:41:14.998Z,1.33
2023-04-11T13:42:18.000Z,2.72
2023-04-11T13:43:19.925Z,1.67
2023-04-11T13:44:22.815Z,3.22
2023-04-11T13:45:25.674Z,2.08
2023-04-11T13:46:27.562Z,1.30
2023-04-11T13:47:30.407Z,5.00
2023-04-11T13:48:32.332Z,1.58
2023-04-11T13:49:35.160Z,2.90
2023-04-11T13:50:39.384Z,1.48
2023-04-11T13:51:42.349Z,3.63
2023-04-11T13:52:45.169Z,3.30
2023-04-11T13:53:48.545Z,2.28
2023-04-11T13:54:51.774Z,2.85
2023-04-11T13:55:54.681Z,3.78
2023-04-11T13:56:58.982Z,3.30
2023-04-11T13:58:00.902Z,4.25
2023-04-11T13:59:03.912Z,1.10
2023-04-11T14:00:11.855Z,4.40
2023-04-11T14:01:13.930Z,2.22
2023-04-11T14:02:16.796Z,3.03
2023-04-11T14:03:18.909Z,2.95
2023-04-11T14:04:22.423Z,1.30
2023-04-11T14:05:26.989Z,3.28
2023-04-11T14:06:28.969Z,1.85
2023-04-11T14:07:31.904Z,1.83
2023-04-11T14:08:33.744Z,3.20
2023-04-11T14:09:37.962Z,3.50
2023-04-11T14:10:40.789Z,1.70
2023-04-11T14:11:43.616Z,3.60
2023-04-11T14:12:46.934Z,2.90
2023-04-11T14:13:50.191Z,1.75